createdAt,value
2019-03-27T00:04:57.062Z,9.50
2019-03-27T00:10:02.347Z,9.00
2019-03-27T00:15:13.261Z,8.67
2019-03-27T00:20:17.054Z,8.67
2019-03-27T00:25:25.906Z,8.00
2019-03-27T00:30:29.946Z,7.00
2019-03-27T00:35:37.390Z,8.00
2019-03-27T00:40:42.318Z,7.33
2019-03-27T00:45:48.203Z,8.00
2019-03-27T00:50:53.002Z,9.33
2019-03-27T00:56:00.998Z,7.80
2019-03-27T01:01:06.615Z,7.00
2019-03-27T01:06:09.831Z,7.33
2019-03-27T01:11:12.914Z,7.33
2019-03-27T01:16:20.238Z,9.00
2019-03-27T01:21:28.455Z,8.70
2019-03-27T01:26:32.471Z,6.00
2019-03-27T01:31:35.490Z,7.00
2019-03-27T01:36:41.923Z,7.80
2019-03-27T01:41:47.418Z,8.00
2019-03-27T01:46:51.379Z,7.00
2019-03-27T01:51:55.487Z,8.00
2019-03-27T01:56:59.611Z,8.17
2019-03-27T02:02:03.449Z,8.40
2019-03-27T02:07:07.475Z,9.00
2019-03-27T02:12:12.278Z,9.43
2019-03-27T02:17:16.090Z,10.00
2019-03-27T02:22:23.534Z,8.44
2019-03-27T02:27:28.078Z,8.67
2019-03-27T02:32:31.154Z,8.00
2019-03-27T02:37:37.240Z,12.43
2019-03-27T02:42:40.962Z,11.00
2019-03-27T02:47:47.341Z,11.43
2019-03-27T02:52:51.331Z,10.33
2019-03-27T02:57:55.276Z,11.40
2019-03-27T03:02:59.368Z,10.80
2019-03-27T03:08:07.480Z,11.00
2019-03-27T03:13:14.175Z,13.00
2019-03-27T03:18:20.604Z,11.14
2019-03-27T03:23:26.485Z,16.00
2019-03-27T03:28:31.561Z,11.71
2019-03-27T03:33:35.630Z,10.17
2019-03-27T03:38:42.168Z,11.00
2019-03-27T03:43:45.964Z,11.00
2019-03-27T03:48:52.096Z,13.00
2019-03-27T03:53:58.586Z,15.29
2019-03-27T03:59:02.763Z,11.17
2019-03-27T04:04:10.001Z,14.00
2019-03-27T04:09:14.979Z,13.29
2019-03-27T04:14:18.896Z,12.00
2019-03-27T04:19:25.219Z,13.57
2019-03-27T04:24:31.649Z,14.71
2019-03-27T04:29:35.491Z,14.25
2019-03-27T04:34:40.172Z,17.71
2019-03-27T04:39:45.942Z,16.14
2019-03-27T04:44:51.516Z,16.57
2019-03-27T04:49:57.415Z,15.71
2019-03-27T04:55:04.888Z,13.71
2019-03-27T05:00:09.872Z,16.00
2019-03-27T05:05:15.968Z,16.29
2019-03-27T05:10:20.941Z,25.00
2019-03-27T05:15:26.653Z,16.25
2019-03-27T05:20:30.683Z,29.33
2019-03-27T05:25:33.964Z,24.33
2019-03-27T05:30:37.320Z,24.67
2019-03-27T05:35:45.683Z,22.75
2019-03-27T05:40:50.515Z,19.00
2019-03-27T05:45:56.214Z,22.62
2019-03-27T05:51:02.116Z,15.86
2019-03-27T05:56:08.724Z,18.62
2019-03-27T06:01:15.346Z,16.62
2019-03-27T06:06:18.710Z,20.67
2019-03-27T06:11:24.406Z,19.25
2019-03-27T06:16:27.742Z,14.00
2019-03-27T06:21:33.606Z,22.75
2019-03-27T06:26:41.801Z,19.00
2019-03-27T06:31:49.063Z,19.37
2019-03-27T06:36:55.672Z,16.29
2019-03-27T06:42:00.499Z,13.29
2019-03-27T06:47:07.267Z,14.71
2019-03-27T06:52:11.355Z,15.40
2019-03-27T06:57:19.890Z,12.71
2019-03-27T07:02:28.591Z,21.37
2019-03-27T07:07:33.929Z,11.57
2019-03-27T07:12:37.424Z,21.75
2019-03-27T07:17:43.538Z,13.00
2019-03-27T07:22:51.058Z,11.29
2019-03-27T07:27:59.621Z,13.71
2019-03-27T07:33:04.752Z,14.29
2019-03-27T07:38:12.514Z,8.10
2019-03-27T07:43:16.167Z,12.00
2019-03-27T07:48:21.410Z,27.86
2019-03-27T07:53:25.897Z,10.29
2019-03-27T07:58:34.566Z,14.70
2019-03-27T08:03:39.784Z,21.62
2019-03-27T08:08:44.257Z,9.00
2019-03-27T08:13:49.457Z,10.00
2019-03-27T08:19:06.624Z,15.33
2019-03-27T08:24:00.147Z,9.50
2019-03-27T08:29:05.469Z,12.14
2019-03-27T08:34:10.826Z,14.29
2019-03-27T08:39:16.300Z,12.43
2019-03-27T08:44:19.937Z,15.00
2019-03-27T08:49:26.346Z,14.71
2019-03-27T08:54:35.080Z,15.27
2019-03-27T08:59:40.410Z,13.43
2019-03-27T09:04:45.814Z,24.87
2019-03-27T09:09:53.739Z,23.20
2019-03-27T09:14:59.907Z,12.86
2019-03-27T09:20:04.116Z,18.00
2019-03-27T09:25:09.080Z,16.14
2019-03-27T09:30:15.306Z,19.00
2019-03-27T09:35:19.082Z,14.50
2019-03-27T09:40:25.577Z,13.57
2019-03-27T09:45:31.008Z,15.00
2019-03-27T09:50:34.626Z,13.20
2019-03-27T09:55:39.111Z,12.00
2019-03-27T10:00:47.702Z,13.00
2019-03-27T10:05:52.278Z,13.00
2019-03-27T10:10:57.725Z,12.00
2019-03-27T10:16:02.953Z,11.71
2019-03-27T10:21:07.187Z,11.33
2019-03-27T10:26:11.506Z,10.83
2019-03-27T10:31:18.472Z,8.67
2019-03-27T10:36:24.459Z,11.17
2019-03-27T10:41:28.002Z,8.00
2019-03-27T10:46:32.539Z,12.71
2019-03-27T10:51:41.044Z,11.71
2019-03-27T10:56:48.815Z,14.57
2019-03-27T11:01:53.168Z,10.50
2019-03-27T11:06:59.902Z,21.75
2019-03-27T11:12:05.623Z,9.86
2019-03-27T11:17:12.552Z,11.00
2019-03-27T11:22:17.728Z,12.00
2019-03-27T11:27:24.687Z,12.50
2019-03-27T11:32:29.017Z,9.33
2019-03-27T11:37:35.190Z,10.00
2019-03-27T11:42:42.932Z,9.83
2019-03-27T11:47:46.567Z,8.83
2019-03-27T11:52:53.597Z,10.33
2019-03-27T11:57:58.067Z,12.86
2019-03-27T12:03:01.625Z,6.75
2019-03-27T12:08:06.127Z,11.86
2019-03-27T12:13:11.504Z,10.00
2019-03-27T12:18:14.682Z,11.00
2019-03-27T12:23:19.545Z,10.17
2019-03-27T12:28:27.510Z,19.43
2019-03-27T12:33:32.998Z,11.71
2019-03-27T12:38:37.546Z,11.00
2019-03-27T12:43:42.667Z,11.43
2019-03-27T12:48:47.411Z,11.83
2019-03-27T12:53:52.054Z,6.00
2019-03-27T12:58:59.548Z,12.00
2019-03-27T13:04:05.206Z,14.29
2019-03-27T13:09:13.235Z,12.86
2019-03-27T13:14:17.610Z,12.00
2019-03-27T13:19:26.151Z,12.29
2019-03-27T13:24:30.935Z,13.43
2019-03-27T13:29:34.758Z,15.00
2019-03-27T13:34:43.863Z,19.64
2019-03-27T13:39:50.854Z,23.75
2019-03-27T13:44:56.308Z,9.33
2019-03-27T13:49:59.110Z,22.67
2019-03-27T13:55:02.216Z,15.00
2019-03-27T14:00:06.610Z,12.00
2019-03-27T14:05:14.467Z,10.67
2019-03-27T14:10:18.684Z,3.67
2019-03-27T14:15:22.171Z,28.00
2019-03-27T14:20:30.890Z,13.83
2019-03-27T14:25:38.539Z,26.67
2019-03-27T14:30:50.876Z,16.43
2019-03-27T14:35:58.572Z,72.09
2019-03-27T14:41:03.593Z,37.00
2019-03-27T14:46:08.133Z,15.75
2019-03-27T14:51:14.591Z,13.00
2019-03-27T14:56:21.942Z,19.89
2019-03-27T15:01:31.112Z,27.50
2019-03-27T15:06:40.272Z,20.78
2019-03-27T15:11:45.832Z,17.43
2019-03-27T15:16:52.007Z,10.00
2019-03-27T15:21:57.226Z,15.00
2019-03-27T15:27:02.972Z,14.43
2019-03-27T15:32:08.967Z,10.00
2019-03-27T15:37:18.954Z,22.00
2019-03-27T15:42:26.882Z,50.73
2019-03-27T15:47:32.542Z,12.43
2019-03-27T15:52:37.111Z,16.00
2019-03-27T15:57:40.859Z,16.00
2019-03-27T16:02:46.816Z,14.71
2019-03-27T16:07:53.678Z,20.00
2019-03-27T16:12:57.227Z,23.50
2019-03-27T16:18:02.492Z,17.71
2019-03-27T16:23:11.917Z,16.75
2019-03-27T16:28:16.470Z,15.71
2019-03-27T16:33:19.987Z,16.00
2019-03-27T16:38:23.510Z,17.50
2019-03-27T16:43:28.817Z,16.00
2019-03-27T16:48:32.363Z,17.00
2019-03-27T16:53:41.249Z,20.75
2019-03-27T16:58:44.800Z,16.75
2019-03-27T17:03:50.356Z,21.86
2019-03-27T17:09:02.472Z,31.20
2019-03-27T17:14:10.048Z,27.75
2019-03-27T17:19:15.798Z,36.13
2019-03-27T17:24:21.810Z,24.14
2019-03-27T17:29:27.887Z,32.25
2019-03-27T17:34:35.136Z,40.56
2019-03-27T17:39:40.979Z,32.75
2019-03-27T17:44:51.951Z,33.63
2019-03-27T17:49:57.015Z,32.11
2019-03-27T17:55:05.175Z,35.43
2019-03-27T18:00:14.694Z,36.13
2019-03-27T18:05:21.234Z,35.00
2019-03-27T18:10:28.839Z,54.00
2019-03-27T18:15:32.993Z,54.20
2019-03-27T18:20:37.118Z,52.33
2019-03-27T18:25:43.728Z,39.00
2019-03-27T18:30:50.915Z,30.75
2019-03-27T18:35:57.754Z,38.00
2019-03-27T18:41:05.354Z,36.63
2019-03-27T18:46:08.771Z,37.00
2019-03-27T18:51:14.717Z,40.38
2019-03-27T18:56:17.802Z,40.00
2019-03-27T19:01:26.340Z,41.13
2019-03-27T19:06:34.077Z,40.00
2019-03-27T19:11:38.045Z,44.00
2019-03-27T19:16:42.448Z,44.25
2019-03-27T19:21:46.880Z,43.75
2019-03-27T19:26:50.884Z,53.00
2019-03-27T19:31:59.994Z,45.23
2019-03-27T19:37:09.017Z,42.50
2019-03-27T19:42:24.995Z,42.11
2019-03-27T19:47:38.002Z,45.00
2019-03-27T19:52:42.350Z,47.25
2019-03-27T19:57:48.491Z,44.00
2019-03-27T20:02:55.416Z,45.33
2019-03-27T20:08:04.726Z,44.10
2019-03-27T20:13:25.447Z,46.23
2019-03-27T20:18:29.704Z,48.67
2019-03-27T20:23:43.833Z,52.71
2019-03-27T20:29:00.638Z,46.89
2019-03-27T20:34:10.532Z,46.92
2019-03-27T20:39:23.096Z,113.93
2019-03-27T20:44:28.486Z,48.33
2019-03-27T20:49:38.429Z,53.29
2019-03-27T20:54:54.962Z,47.75
2019-03-27T20:59:52.618Z,48.00
2019-03-27T21:04:57.654Z,48.71
2019-03-27T21:10:04.941Z,44.63
2019-03-27T21:15:22.723Z,51.71
2019-03-27T21:20:27.910Z,48.57
2019-03-27T21:25:31.968Z,47.20
2019-03-27T21:30:41.266Z,43.63
2019-03-27T21:35:50.754Z,51.17
2019-03-27T21:41:06.108Z,47.40
2019-03-27T21:46:17.064Z,52.54
2019-03-27T21:51:29.641Z,59.25
2019-03-27T21:56:39.990Z,51.00
2019-03-27T22:01:45.858Z,48.00
2019-03-27T22:06:52.849Z,52.00
2019-03-27T22:12:08.298Z,58.72
2019-03-27T22:17:13.563Z,55.50
2019-03-27T22:22:22.441Z,59.50
2019-03-27T22:32:37.397Z,48.87
2019-03-27T22:37:45.233Z,43.87
2019-03-27T22:42:49.790Z,44.50
2019-03-27T22:47:56.739Z,46.00
2019-03-27T22:53:06.098Z,46.25
2019-03-27T22:58:14.314Z,43.38
2019-03-27T23:03:22.431Z,47.00
2019-03-27T23:08:26.262Z,45.00
2019-03-27T23:13:33.365Z,45.38
2019-03-27T23:18:43.317Z,46.00
2019-03-27T23:23:47.819Z,46.00
2019-03-27T23:28:56.648Z,45.00
2019-03-27T23:34:03.666Z,47.67
2019-03-27T23:39:12.293Z,48.00
2019-03-27T23:44:22.570Z,45.55
2019-03-27T23:49:31.333Z,45.12
2019-03-27T23:54:40.717Z,45.17
2019-03-27T23:59:47.006Z,43.87
